createdAt,value
2023-04-06T00:00:50.106Z,-0.89
2023-04-06T00:01:50.110Z,-0.86
2023-04-06T00:02:50.170Z,-0.97
2023-04-06T00:03:50.110Z,-0.97
2023-04-06T00:04:50.085Z,-1.02
2023-04-06T00:05:50.057Z,-1.00
2023-04-06T00:06:50.049Z,-0.94
2023-04-06T00:07:50.028Z,-0.95
2023-04-06T00:08:50.017Z,-0.97
2023-04-06T00:09:50.008Z,-1.00
2023-04-06T00:10:50.002Z,-1.10
2023-04-06T00:11:50.008Z,-0.94
2023-04-06T00:12:49.977Z,-1.00
2023-04-06T00:13:49.965Z,-0.99
2023-04-06T00:14:49.957Z,-0.97
2023-04-06T00:15:49.952Z,-1.03
2023-04-06T00:16:50.033Z,-1.09
2023-04-06T00:17:49.986Z,-1.12
2023-04-06T00:18:49.916Z,-1.05
2023-04-06T00:19:49.908Z,-1.03
2023-04-06T00:20:49.897Z,-1.00
2023-04-06T00:21:49.927Z,-0.99
2023-04-06T00:22:49.889Z,-1.06
2023-04-06T00:23:49.866Z,-1.06
2023-04-06T00:24:49.856Z,-1.02
2023-04-06T00:25:49.834Z,-1.02
2023-04-06T00:26:49.884Z,-1.07
2023-04-06T00:27:49.823Z,-1.05
2023-04-06T00:28:49.813Z,-1.05
2023-04-06T00:29:49.823Z,-1.07
2023-04-06T00:30:49.787Z,-1.00
2023-04-06T00:31:49.830Z,-1.12
2023-04-06T00:32:49.787Z,-1.13
2023-04-06T00:33:49.761Z,-1.15
2023-04-06T00:34:49.761Z,-1.10
2023-04-06T00:35:49.795Z,-1.15
2023-04-06T00:36:49.766Z,-1.09
2023-04-06T00:37:49.747Z,-1.21
2023-04-06T00:38:49.705Z,-1.27
2023-04-06T00:39:49.716Z,-1.18
2023-04-06T00:40:49.686Z,-1.25
2023-04-06T00:41:49.701Z,-1.28
2023-04-06T00:42:49.676Z,-1.20
2023-04-06T00:43:49.665Z,-1.36
2023-04-06T00:44:49.657Z,-1.33
2023-04-06T00:45:49.673Z,-1.27
2023-04-06T00:46:49.726Z,-1.35
2023-04-06T00:47:49.657Z,-1.48
2023-04-06T00:48:49.616Z,-1.35
2023-04-06T00:49:49.620Z,-1.31
2023-04-06T00:50:49.606Z,-1.33
2023-04-06T00:51:49.592Z,-1.30
2023-04-06T00:52:49.568Z,-1.30
2023-04-06T00:53:49.566Z,-1.46
2023-04-06T00:54:49.555Z,-1.41
2023-04-06T00:55:49.538Z,-1.36
2023-04-06T00:56:49.532Z,-1.35
2023-04-06T00:57:49.516Z,-1.46
2023-04-06T00:58:49.598Z,-1.43
2023-04-06T00:59:49.501Z,-1.35
2023-04-06T01:00:49.486Z,-1.46
2023-04-06T01:01:49.542Z,-1.46
2023-04-06T01:02:49.507Z,-1.38
2023-04-06T01:03:49.448Z,-1.35
2023-04-06T01:04:49.446Z,-1.38
2023-04-06T01:05:49.509Z,-1.42
2023-04-06T01:06:49.443Z,-1.42
2023-04-06T01:07:49.429Z,-1.45
2023-04-06T01:08:49.405Z,-1.59
2023-04-06T01:09:49.412Z,-1.43
2023-04-06T01:10:49.374Z,-1.35
2023-04-06T01:11:49.385Z,-1.39
2023-04-06T01:12:49.378Z,-1.42
2023-04-06T01:13:49.349Z,-1.51
2023-04-06T01:14:49.346Z,-1.42
2023-04-06T01:15:49.375Z,-1.51
2023-04-06T01:16:49.331Z,-1.49
2023-04-06T01:17:49.374Z,-1.60
2023-04-06T01:18:49.312Z,-1.63
2023-04-06T01:19:49.292Z,-1.66
2023-04-06T01:20:49.277Z,-1.66
2023-04-06T01:21:49.285Z,-1.74
2023-04-06T01:22:49.255Z,-1.69
2023-04-06T01:23:49.250Z,-1.75
2023-04-06T01:24:49.239Z,-1.64
2023-04-06T01:25:49.245Z,-1.77
2023-04-06T01:26:49.251Z,-1.74
2023-04-06T01:27:49.201Z,-1.77
2023-04-06T01:28:49.203Z,-1.90
2023-04-06T01:29:49.180Z,-1.92
2023-04-06T01:30:49.183Z,-1.82
2023-04-06T01:31:49.283Z,-1.99
2023-04-06T01:32:49.168Z,-1.88
2023-04-06T01:33:49.175Z,-1.93
2023-04-06T01:34:49.124Z,-2.00
2023-04-06T01:35:49.183Z,-2.00
2023-04-06T01:36:49.119Z,-2.03
2023-04-06T01:37:49.107Z,-1.99
2023-04-06T01:38:49.092Z,-2.02
2023-04-06T01:39:49.094Z,-1.96
2023-04-06T01:40:49.081Z,-1.96
2023-04-06T01:41:49.083Z,-1.93
2023-04-06T01:42:49.050Z,-1.88
2023-04-06T01:43:49.060Z,-1.77
2023-04-06T01:44:49.036Z,-1.82
2023-04-06T01:45:49.019Z,-1.77
2023-04-06T01:46:49.062Z,-1.70
2023-04-06T01:47:49.027Z,-1.70
2023-04-06T01:48:48.992Z,-1.64
2023-04-06T01:49:48.983Z,-1.69
2023-04-06T01:50:48.973Z,-1.63
2023-04-06T01:51:48.956Z,-1.70
2023-04-06T01:52:48.961Z,-1.74
2023-04-06T01:53:48.938Z,-1.70
2023-04-06T01:54:48.951Z,-1.60
2023-04-06T01:55:48.925Z,-1.70
2023-04-06T01:56:48.917Z,-1.74
2023-04-06T01:57:48.911Z,-1.75
2023-04-06T01:58:48.936Z,-1.78
2023-04-06T01:59:48.884Z,-1.77
2023-04-06T02:00:48.885Z,-1.75
2023-04-06T02:01:48.867Z,-1.72
2023-04-06T02:02:48.865Z,-1.80
2023-04-06T02:03:48.883Z,-1.74
2023-04-06T02:04:48.833Z,-1.80
2023-04-06T02:05:48.840Z,-1.74
2023-04-06T02:06:48.816Z,-1.77
2023-04-06T02:07:48.816Z,-1.77
2023-04-06T02:08:48.789Z,-1.82
2023-04-06T02:09:48.780Z,-1.90
2023-04-06T02:10:48.815Z,-1.87
2023-04-06T02:11:48.751Z,-1.92
2023-04-06T02:12:48.757Z,-1.90
2023-04-06T02:13:48.753Z,-1.96
2023-04-06T02:14:48.730Z,-1.98
2023-04-06T02:15:48.730Z,-1.99
2023-04-06T02:16:48.776Z,-2.02
2023-04-06T02:17:48.765Z,-2.02
2023-04-06T02:18:48.699Z,-2.05
2023-04-06T02:19:48.686Z,-1.93
2023-04-06T02:20:48.665Z,-2.06
2023-04-06T02:21:48.676Z,-2.00
2023-04-06T02:22:48.658Z,-2.13
2023-04-06T02:23:48.628Z,-2.14
2023-04-06T02:24:48.639Z,-2.18
2023-04-06T02:25:48.612Z,-2.16
2023-04-06T02:26:48.618Z,-2.17
2023-04-06T02:27:48.599Z,-2.21
2023-04-06T02:28:48.593Z,-2.20
2023-04-06T02:29:48.590Z,-2.24
2023-04-06T02:30:48.560Z,-2.28
2023-04-06T02:31:48.643Z,-2.29
2023-04-06T02:32:48.586Z,-2.29
2023-04-06T02:33:48.542Z,-2.26
2023-04-06T02:34:48.519Z,-2.17
2023-04-06T02:35:48.553Z,-2.21
2023-04-06T02:36:48.492Z,-2.11
2023-04-06T02:37:48.490Z,-2.13
2023-04-06T02:38:48.471Z,-2.11
2023-04-06T02:39:48.477Z,-2.17
2023-04-06T02:40:48.450Z,-2.08
2023-04-06T02:41:48.450Z,-2.08
2023-04-06T02:42:48.439Z,-2.11
2023-04-06T02:43:48.420Z,-2.06
2023-04-06T02:44:48.427Z,-2.11
2023-04-06T02:45:48.405Z,-2.16
2023-04-06T02:46:48.400Z,-2.14
2023-04-06T02:47:48.412Z,-2.06
2023-04-06T02:48:48.365Z,-2.06
2023-04-06T02:49:48.727Z,-2.11
2023-04-06T02:50:48.355Z,-2.08
2023-04-06T02:51:48.331Z,-2.14
2023-04-06T02:52:48.338Z,-1.99
2023-04-06T02:53:48.320Z,-2.17
2023-04-06T02:54:48.309Z,-2.17
2023-04-06T02:55:48.295Z,-2.26
2023-04-06T02:56:48.284Z,-2.20
2023-04-06T02:57:48.277Z,-2.29
2023-04-06T02:58:48.443Z,-2.20
2023-04-06T02:59:48.245Z,-2.29
2023-04-06T03:00:48.246Z,-2.33
2023-04-06T03:01:48.389Z,-2.40
2023-04-06T03:02:48.300Z,-2.38
2023-04-06T03:03:48.309Z,-2.56
2023-04-06T03:04:48.218Z,-2.57
2023-04-06T03:05:48.184Z,-2.58
2023-04-06T03:06:48.188Z,-2.60
2023-04-06T03:07:48.182Z,-2.61
2023-04-06T03:08:48.157Z,-2.43
2023-04-06T03:09:48.179Z,-2.61
2023-04-06T03:10:48.136Z,-2.56
2023-04-06T03:11:48.131Z,-2.66
2023-04-06T03:12:48.149Z,-2.64
2023-04-06T03:13:48.112Z,-2.61
2023-04-06T03:14:48.105Z,-2.71
2023-04-06T03:15:48.179Z,-2.56
2023-04-06T03:16:48.073Z,-2.63
2023-04-06T03:17:48.160Z,-2.57
2023-04-06T03:18:48.057Z,-2.58
2023-04-06T03:19:48.030Z,-2.56
2023-04-06T03:20:48.034Z,-2.50
2023-04-06T03:21:48.043Z,-2.40
2023-04-06T03:22:48.024Z,-2.35
2023-04-06T03:23:47.993Z,-2.43
2023-04-06T03:24:47.986Z,-2.39
2023-04-06T03:25:48.022Z,-2.50
2023-04-06T03:26:47.964Z,-2.39
2023-04-06T03:27:47.956Z,-2.35
2023-04-06T03:28:47.942Z,-2.38
2023-04-06T03:29:47.926Z,-2.28
2023-04-06T03:30:47.919Z,-2.28
2023-04-06T03:31:47.952Z,-2.26
2023-04-06T03:32:47.933Z,-2.42
2023-04-06T03:33:47.903Z,-2.48
2023-04-06T03:34:47.882Z,-2.35
2023-04-06T03:35:47.921Z,-2.56
2023-04-06T03:36:51.677Z,-2.57
2023-04-06T03:37:48.863Z,-2.61
2023-04-06T03:38:47.835Z,-2.47
2023-04-06T03:39:47.830Z,-2.61
2023-04-06T03:40:47.834Z,-2.56
2023-04-06T03:41:47.808Z,-2.58
2023-04-06T03:42:47.879Z,-2.56
2023-04-06T03:43:47.791Z,-2.53
2023-04-06T03:44:47.775Z,-2.58
2023-04-06T03:45:47.786Z,-2.58
2023-04-06T03:46:47.794Z,-2.56
2023-04-06T03:47:47.825Z,-2.51
2023-04-06T03:48:47.736Z,-2.61
2023-04-06T03:49:47.720Z,-2.61
2023-04-06T03:50:47.721Z,-2.71
2023-04-06T03:51:47.694Z,-2.72
2023-04-06T03:52:47.707Z,-2.72
2023-04-06T03:53:47.672Z,-2.76
2023-04-06T03:54:47.668Z,-2.94
2023-04-06T03:55:47.652Z,-2.93
2023-04-06T03:56:47.645Z,-2.93
2023-04-06T03:57:47.644Z,-2.94
2023-04-06T03:58:47.625Z,-2.82
2023-04-06T03:59:47.615Z,-2.93
2023-04-06T04:00:47.601Z,-2.89
2023-04-06T04:01:47.614Z,-3.02
2023-04-06T04:02:47.688Z,-2.87
2023-04-06T04:03:50.200Z,-3.08
2023-04-06T04:04:47.586Z,-3.02
2023-04-06T04:05:47.553Z,-2.97
2023-04-06T04:06:47.535Z,-3.05
2023-04-06T04:07:47.553Z,-2.97
2023-04-06T04:08:47.516Z,-2.94
2023-04-06T04:09:47.507Z,-2.97
2023-04-06T04:10:47.531Z,-2.93
2023-04-06T04:11:47.490Z,-2.97
2023-04-06T04:12:47.492Z,-2.97
2023-04-06T04:13:47.478Z,-3.05
2023-04-06T04:14:47.467Z,-2.96
2023-04-06T04:15:47.444Z,-2.90
2023-04-06T04:16:47.493Z,-2.86
2023-04-06T04:17:47.450Z,-2.85
2023-04-06T04:18:47.417Z,-2.93
2023-04-06T04:19:47.402Z,-2.85
2023-04-06T04:20:47.420Z,-2.78
2023-04-06T04:21:47.384Z,-2.82
2023-04-06T04:22:47.382Z,-2.78
2023-04-06T04:23:47.360Z,-2.79
2023-04-06T04:24:47.364Z,-2.96
2023-04-06T04:25:47.332Z,-3.10
2023-04-06T04:26:47.349Z,-3.04
2023-04-06T04:27:47.330Z,-3.07
2023-04-06T04:28:47.318Z,-3.10
2023-04-06T04:29:47.345Z,-3.02
2023-04-06T04:30:47.292Z,-2.90
2023-04-06T04:31:47.361Z,-3.13
2023-04-06T04:32:47.327Z,-3.13
2023-04-06T04:33:47.259Z,-3.07
2023-04-06T04:34:47.255Z,-3.13
2023-04-06T04:35:47.271Z,-3.04
2023-04-06T04:36:47.234Z,-3.11
2023-04-06T04:37:47.240Z,-3.07
2023-04-06T04:38:47.221Z,-2.96
2023-04-06T04:39:47.199Z,-3.05
2023-04-06T04:40:47.244Z,-3.02
2023-04-06T04:41:47.177Z,-3.02
2023-04-06T04:42:47.205Z,-3.05
2023-04-06T04:43:47.164Z,-3.05
2023-04-06T04:44:47.157Z,-2.92
2023-04-06T04:45:47.183Z,-2.93
2023-04-06T04:46:47.134Z,-3.08
2023-04-06T04:47:47.170Z,-2.99
2023-04-06T04:48:47.113Z,-3.04
2023-04-06T04:49:47.090Z,-3.04
2023-04-06T04:50:47.083Z,-2.99
2023-04-06T04:51:47.089Z,-3.05
2023-04-06T04:52:47.080Z,-2.97
2023-04-06T04:53:47.063Z,-2.99
2023-04-06T04:54:47.054Z,-3.02
2023-04-06T04:55:47.036Z,-2.94
2023-04-06T04:56:47.023Z,-3.04
2023-04-06T04:57:47.019Z,-2.90
2023-04-06T04:58:47.018Z,-3.00
2023-04-06T04:59:47.005Z,-2.96
2023-04-06T05:00:46.985Z,-2.87
2023-04-06T05:01:54.718Z,-2.92
2023-04-06T05:02:48.109Z,-2.81
2023-04-06T05:03:47.048Z,-2.78
2023-04-06T05:04:46.947Z,-2.87
2023-04-06T05:05:46.939Z,-2.86
2023-04-06T05:06:46.922Z,-2.89
2023-04-06T05:07:46.919Z,-2.90
2023-04-06T05:08:46.997Z,-2.87
2023-04-06T05:09:46.915Z,-3.08
2023-04-06T05:10:46.878Z,-2.99
2023-04-06T05:11:46.877Z,-3.00
2023-04-06T05:12:46.860Z,-3.02
2023-04-06T05:13:46.862Z,-2.93
2023-04-06T05:14:46.845Z,-2.93
2023-04-06T05:15:46.854Z,-2.89
2023-04-06T05:16:46.817Z,-2.86
2023-04-06T05:17:46.852Z,-2.82
2023-04-06T05:18:46.812Z,-2.78
2023-04-06T05:19:46.780Z,-2.79
2023-04-06T05:20:46.777Z,-2.75
2023-04-06T05:21:46.782Z,-2.78
2023-04-06T05:22:46.761Z,-2.79
2023-04-06T05:23:46.780Z,-2.75
2023-04-06T05:24:46.741Z,-2.58
2023-04-06T05:25:46.741Z,-2.69
2023-04-06T05:26:46.720Z,-2.75
2023-04-06T05:27:46.718Z,-2.68
2023-04-06T05:28:46.707Z,-2.68
2023-04-06T05:29:46.686Z,-2.66
2023-04-06T05:30:46.677Z,-2.45
2023-04-06T05:31:46.725Z,-2.38
2023-04-06T05:32:46.693Z,-2.24
2023-04-06T05:33:46.682Z,-2.16
2023-04-06T05:34:46.632Z,-2.23
2023-04-06T05:35:46.657Z,-2.16
2023-04-06T05:36:46.621Z,-2.08
2023-04-06T05:37:46.602Z,-2.00
2023-04-06T05:38:46.606Z,-1.93
2023-04-06T05:39:46.580Z,-1.75
2023-04-06T05:40:46.573Z,-1.80
2023-04-06T05:41:46.593Z,-1.69
2023-04-06T05:42:46.546Z,-1.69
2023-04-06T05:43:46.551Z,-1.63
2023-04-06T05:44:46.526Z,-1.54
2023-04-06T05:45:46.530Z,-1.43
2023-04-06T05:46:46.592Z,-1.28
2023-04-06T05:47:46.506Z,-1.18
2023-04-06T05:48:46.496Z,-1.00
2023-04-06T05:49:46.488Z,-0.78
2023-04-06T05:50:46.450Z,-0.52
2023-04-06T05:51:46.483Z,-0.33
2023-04-06T05:52:46.441Z,-0.05
2023-04-06T05:53:46.454Z,0.34
2023-04-06T05:54:46.449Z,0.68
2023-04-06T05:55:46.416Z,0.94
2023-04-06T05:56:46.417Z,1.33
2023-04-06T05:57:46.417Z,1.44
2023-04-06T05:58:46.408Z,1.76
2023-04-06T05:59:46.364Z,2.04
2023-04-06T06:00:46.378Z,2.19
2023-04-06T06:01:46.381Z,2.37
2023-04-06T06:02:46.376Z,2.63
2023-04-06T06:03:46.353Z,2.88
2023-04-06T06:04:46.380Z,3.18
2023-04-06T06:05:46.312Z,3.49
2023-04-06T06:06:46.290Z,3.71
2023-04-06T06:07:46.292Z,3.86
2023-04-06T06:08:46.272Z,3.92
2023-04-06T06:09:46.258Z,3.98
2023-04-06T06:10:46.242Z,4.07
2023-04-06T06:11:46.248Z,4.15
2023-04-06T06:12:46.221Z,4.29
2023-04-06T06:13:46.246Z,4.43
2023-04-06T06:14:46.189Z,4.52
2023-04-06T06:15:46.195Z,4.65
2023-04-06T06:16:46.236Z,4.67
2023-04-06T06:17:46.215Z,4.83
2023-04-06T06:18:46.162Z,4.86
2023-04-06T06:19:46.154Z,4.80
2023-04-06T06:20:46.135Z,4.55
2023-04-06T06:21:46.142Z,4.69
2023-04-06T06:22:46.167Z,4.79
2023-04-06T06:23:46.119Z,4.83
2023-04-06T06:24:46.083Z,5.19
2023-04-06T06:25:46.088Z,5.23
2023-04-06T06:26:46.095Z,5.14
2023-04-06T06:27:46.058Z,4.89
2023-04-06T06:28:46.063Z,4.59
2023-04-06T06:29:46.053Z,4.55
2023-04-06T06:30:46.027Z,4.67
2023-04-06T06:31:46.073Z,5.04
2023-04-06T06:32:46.033Z,5.04
2023-04-06T06:33:46.007Z,4.98
2023-04-06T06:34:45.989Z,4.75
2023-04-06T06:35:45.987Z,4.75
2023-04-06T06:36:48.124Z,4.77
2023-04-06T06:37:45.958Z,4.67
2023-04-06T06:38:45.960Z,4.47
2023-04-06T06:39:45.945Z,4.40
2023-04-06T06:40:45.922Z,4.33
2023-04-06T06:41:45.917Z,4.25
2023-04-06T06:42:45.919Z,4.25
2023-04-06T06:43:45.915Z,4.07
2023-04-06T06:44:45.877Z,4.21
2023-04-06T06:45:46.099Z,4.04
2023-04-06T06:46:45.877Z,3.97
2023-04-06T06:47:45.891Z,4.00
2023-04-06T06:48:45.847Z,4.19
2023-04-06T06:49:45.848Z,4.18
2023-04-06T06:50:45.885Z,4.14
2023-04-06T06:51:45.811Z,4.19
2023-04-06T06:52:45.793Z,4.16
2023-04-06T06:53:45.794Z,4.19
2023-04-06T06:54:45.769Z,4.16
2023-04-06T06:55:45.780Z,4.36
2023-04-06T06:56:45.758Z,4.55
2023-04-06T06:57:45.744Z,4.58
2023-04-06T06:58:45.761Z,4.99
2023-04-06T06:59:45.777Z,5.12
2023-04-06T07:00:45.775Z,4.96
2023-04-06T07:01:45.709Z,4.96
2023-04-06T07:02:45.717Z,5.04
2023-04-06T07:03:45.785Z,5.14
2023-04-06T07:04:45.719Z,5.46
2023-04-06T07:05:45.656Z,5.67
2023-04-06T07:06:45.645Z,5.46
2023-04-06T07:07:45.637Z,5.66
2023-04-06T07:08:46.674Z,5.63
2023-04-06T07:09:46.131Z,5.59
2023-04-06T07:10:46.101Z,5.78
2023-04-06T07:11:45.914Z,6.03
2023-04-06T07:12:48.424Z,6.58
2023-04-06T07:13:47.682Z,6.97
2023-04-06T08:48:00.349Z,10.73
2023-04-06T08:48:22.455Z,11.28
2023-04-06T08:49:22.666Z,11.94
2023-04-06T08:59:32.614Z,12.87
2023-04-06T09:00:18.515Z,12.74
2023-04-06T09:01:18.511Z,13.06
2023-04-06T09:02:18.598Z,13.44
2023-04-06T09:03:18.604Z,13.74
2023-04-06T09:04:19.691Z,13.52
2023-04-06T09:05:18.471Z,13.21
2023-04-06T09:06:18.445Z,13.47
2023-04-06T09:07:18.432Z,13.52
2023-04-06T09:08:18.451Z,13.74
2023-04-06T09:09:18.424Z,13.32
2023-04-06T09:10:18.410Z,12.85
2023-04-06T09:11:18.396Z,12.54
2023-04-06T09:12:18.380Z,12.63
2023-04-06T09:13:18.375Z,12.42
2023-04-06T09:14:18.834Z,12.29
2023-04-06T09:15:19.472Z,12.29
2023-04-06T09:25:18.101Z,16.58
2023-04-06T09:26:18.083Z,15.49
2023-04-06T09:27:18.076Z,15.17
2023-04-06T09:28:18.056Z,15.39
2023-04-06T09:41:33.940Z,17.38
2023-04-06T09:42:05.416Z,16.99
2023-04-06T09:43:05.377Z,16.63
2023-04-06T09:58:50.348Z,15.30
2023-04-06T09:59:50.307Z,15.05
2023-04-06T10:00:53.009Z,14.68
2023-04-06T10:01:50.233Z,13.84
2023-04-06T10:02:50.338Z,13.98
2023-04-06T10:03:50.392Z,13.71
2023-04-06T10:04:50.220Z,13.21
2023-04-06T10:05:50.202Z,13.12
2023-04-06T10:06:50.181Z,13.49
2023-04-06T10:08:52.052Z,13.76
2023-04-06T10:09:50.155Z,13.98
2023-04-06T10:10:50.137Z,13.94
2023-04-06T10:11:50.432Z,13.77
2023-04-06T10:12:50.121Z,13.59
2023-04-06T10:13:50.101Z,13.44
2023-04-06T10:14:50.104Z,13.40
2023-04-06T10:15:50.086Z,13.36
2023-04-06T10:16:50.138Z,13.27
2023-04-06T10:17:50.103Z,13.00
2023-04-06T10:18:50.046Z,13.27
2023-04-06T10:19:50.056Z,13.54
2023-04-06T10:20:50.041Z,13.43
2023-04-06T10:21:50.011Z,13.52
2023-04-06T10:22:50.010Z,13.37
2023-04-06T10:23:50.004Z,13.54
2023-04-06T10:24:49.999Z,13.49
2023-04-06T10:25:49.969Z,13.52
2023-04-06T10:26:49.963Z,13.44
2023-04-06T10:27:49.948Z,13.40
2023-04-06T10:28:49.950Z,13.46
2023-04-06T10:29:49.987Z,13.79
2023-04-06T10:30:49.932Z,14.24
2023-04-06T10:31:49.947Z,14.34
2023-04-06T10:32:49.914Z,13.88
2023-04-06T10:33:49.892Z,13.69
2023-04-06T10:34:49.895Z,13.65
2023-04-06T10:35:49.903Z,13.76
2023-04-06T10:36:49.864Z,13.58
2023-04-06T10:37:49.851Z,13.74
2023-04-06T10:38:49.839Z,13.71
2023-04-06T10:39:49.827Z,13.94
2023-04-06T10:40:49.861Z,14.14
2023-04-06T10:41:49.809Z,14.56
2023-04-06T10:42:49.796Z,15.02
2023-04-06T10:43:49.843Z,15.11
2023-04-06T10:44:49.776Z,14.75
2023-04-06T10:45:49.825Z,14.46
2023-04-06T10:46:49.758Z,14.32
2023-04-06T10:47:49.761Z,14.06
2023-04-06T10:48:49.730Z,13.99
2023-04-06T10:49:49.719Z,14.09
2023-04-06T10:50:49.746Z,14.02
2023-04-06T10:51:49.696Z,14.04
2023-04-06T10:52:49.730Z,14.37
2023-04-06T10:53:49.734Z,14.56
2023-04-06T10:54:50.565Z,14.12
2023-04-06T10:55:49.671Z,14.02
2023-04-06T10:56:49.653Z,13.80
2023-04-06T10:57:49.640Z,13.83
2023-04-06T10:58:49.729Z,13.70
2023-04-06T10:59:49.612Z,13.87
2023-04-06T11:00:51.038Z,14.34
2023-04-06T11:01:49.653Z,14.24
2023-04-06T11:02:49.715Z,14.14
2023-04-06T11:03:49.622Z,13.92
2023-04-06T11:04:49.561Z,14.29
2023-04-06T11:05:49.578Z,14.25
2023-04-06T11:06:49.553Z,14.44
2023-04-06T11:07:49.527Z,15.03
2023-04-06T11:08:49.518Z,15.11
2023-04-06T11:10:04.557Z,15.68
2023-04-06T11:10:50.516Z,16.15
2023-04-06T11:11:49.581Z,16.90
2023-04-06T11:12:49.475Z,16.44
2023-04-06T11:13:49.474Z,15.56
2023-04-06T11:14:49.459Z,15.33
2023-04-06T11:15:49.439Z,15.06
2023-04-06T11:16:49.511Z,15.03
2023-04-06T11:17:49.431Z,14.95
2023-04-06T11:18:49.410Z,15.19
2023-04-06T11:19:49.395Z,15.92
2023-04-06T11:20:49.391Z,15.81
2023-04-06T11:21:49.473Z,15.52
2023-04-06T11:22:49.398Z,15.33
2023-04-06T11:23:49.358Z,15.38
2023-04-06T11:24:49.349Z,15.66
2023-04-06T11:25:49.692Z,15.12
2023-04-06T11:26:50.707Z,14.91
2023-04-06T11:27:49.368Z,15.03
2023-04-06T11:28:49.314Z,15.24
2023-04-06T11:29:49.304Z,15.24
2023-04-06T11:30:49.310Z,15.57
2023-04-06T11:31:49.296Z,15.33
2023-04-06T11:32:49.319Z,15.33
2023-04-06T11:33:49.267Z,15.68
2023-04-06T11:34:49.257Z,15.60
2023-04-06T11:35:49.278Z,15.75
2023-04-06T11:36:49.241Z,15.64
2023-04-06T11:37:49.231Z,15.28
2023-04-06T11:38:49.219Z,14.84
2023-04-06T11:39:49.234Z,14.87
2023-04-06T11:40:49.204Z,14.75
2023-04-06T11:41:49.231Z,14.24
2023-04-06T11:42:49.176Z,13.88
2023-04-06T11:43:49.208Z,14.04
2023-04-06T11:44:49.176Z,14.64
2023-04-06T11:45:50.351Z,15.45
2023-04-06T11:46:50.349Z,15.49
2023-04-06T11:47:50.330Z,16.00
2023-04-06T11:48:50.311Z,16.89
2023-04-06T11:49:50.261Z,17.76
2023-04-06T11:50:50.258Z,18.34
2023-04-06T11:51:50.311Z,18.47
2023-04-06T11:52:50.274Z,18.00
2023-04-06T11:53:50.263Z,17.38
2023-04-06T11:54:50.240Z,16.53
2023-04-06T11:55:50.263Z,16.52
2023-04-06T11:56:50.241Z,16.03
2023-04-06T11:57:51.204Z,15.35
2023-04-06T11:58:50.200Z,14.64
2023-04-06T11:59:50.198Z,14.35
2023-04-06T12:00:50.229Z,14.29
2023-04-06T12:01:50.278Z,14.32
2023-04-06T12:02:50.296Z,14.52
2023-04-06T12:03:50.434Z,14.75
2023-04-06T12:04:50.279Z,14.87
2023-04-06T12:05:50.144Z,14.72
2023-04-06T12:06:50.149Z,15.03
2023-04-06T12:07:50.142Z,14.95
2023-04-06T12:08:50.139Z,14.81
2023-04-06T12:09:50.113Z,14.67
2023-04-06T12:10:50.084Z,14.78
2023-04-06T12:11:50.179Z,15.21
2023-04-06T12:12:50.050Z,15.21
2023-04-06T12:13:50.052Z,14.90
2023-04-06T12:14:50.126Z,15.06
2023-04-06T12:15:52.121Z,15.15
2023-04-06T12:16:50.069Z,15.15
2023-04-06T12:17:50.051Z,14.84
2023-04-06T12:18:49.996Z,14.62
2023-04-06T12:19:49.988Z,15.01
2023-04-06T12:20:49.988Z,15.60
2023-04-06T12:21:49.996Z,16.04
2023-04-06T12:22:49.972Z,15.84
2023-04-06T12:23:49.968Z,15.31
2023-04-06T12:24:49.930Z,15.17
2023-04-06T12:25:49.945Z,15.02
2023-04-06T12:26:53.932Z,15.11
2023-04-06T12:27:51.936Z,15.46
2023-04-06T12:28:50.076Z,15.56
2023-04-06T12:29:50.039Z,15.93
2023-04-06T12:30:49.899Z,15.86
2023-04-06T12:31:50.088Z,15.94
2023-04-06T12:32:51.287Z,16.04
2023-04-06T12:33:50.851Z,16.01
2023-04-06T12:34:49.892Z,15.89
2023-04-06T12:35:49.829Z,15.70
2023-04-06T12:36:54.115Z,15.43
2023-04-06T12:37:49.932Z,15.02
2023-04-06T12:39:44.709Z,15.36
2023-04-06T12:39:49.763Z,15.45
2023-04-06T12:40:49.735Z,15.41
2023-04-06T12:41:49.833Z,15.30
2023-04-06T12:42:49.761Z,15.38
2023-04-06T12:43:49.721Z,15.61
2023-04-06T12:44:49.721Z,16.14
2023-04-06T12:45:50.704Z,16.77
2023-04-06T12:46:49.754Z,17.08
2023-04-06T12:47:49.853Z,16.90
2023-04-06T12:48:49.672Z,16.86
2023-04-06T12:49:49.651Z,16.16
2023-04-06T12:50:49.683Z,16.22
2023-04-06T12:51:49.813Z,15.92
2023-04-06T12:52:49.639Z,15.78
2023-04-06T12:53:49.624Z,15.48
2023-04-06T12:54:51.575Z,15.05
2023-04-06T12:55:50.706Z,15.28
2023-04-06T12:56:49.618Z,15.88
2023-04-06T12:57:49.773Z,16.40
2023-04-06T12:58:50.626Z,17.50
2023-04-06T12:59:49.666Z,18.13
2023-04-06T13:01:04.562Z,18.70
2023-04-06T13:01:49.736Z,18.83
2023-04-06T13:02:49.738Z,18.98
2023-04-06T13:03:49.596Z,19.21
2023-04-06T13:04:49.561Z,19.53
2023-04-06T13:05:49.526Z,19.60
2023-04-06T13:06:49.533Z,19.40
2023-04-06T13:07:49.499Z,18.95
2023-04-06T13:08:49.503Z,17.85
2023-04-06T13:09:49.580Z,16.62
2023-04-06T13:10:49.481Z,16.03
2023-04-06T13:11:49.505Z,15.89
2023-04-06T13:12:49.462Z,15.89
2023-04-06T13:13:49.443Z,15.60
2023-04-06T13:14:49.438Z,15.17
2023-04-06T13:15:49.415Z,15.23
2023-04-06T13:16:49.490Z,15.24
2023-04-06T13:17:49.418Z,15.36
2023-04-06T13:18:49.389Z,15.63
2023-04-06T13:19:49.414Z,16.03
2023-04-06T13:20:49.393Z,16.11
2023-04-06T13:21:49.396Z,15.85
2023-04-06T13:22:49.358Z,15.60
2023-04-06T13:23:49.364Z,15.38
2023-04-06T13:24:49.335Z,15.36
2023-04-06T13:25:49.326Z,15.45
2023-04-06T13:26:49.346Z,15.26
2023-04-06T13:27:49.320Z,15.11
2023-04-06T13:28:49.306Z,14.90
2023-04-06T13:29:49.283Z,14.80
2023-04-06T13:30:49.276Z,14.60
2023-04-06T13:31:49.312Z,14.86
2023-04-06T13:32:49.309Z,14.86
2023-04-06T13:33:49.252Z,14.83
2023-04-06T13:34:49.241Z,14.72
2023-04-06T13:35:49.252Z,14.54
2023-04-06T13:36:49.276Z,14.67
2023-04-06T13:37:49.213Z,14.72
2023-04-06T13:38:49.207Z,14.68
2023-04-06T13:39:49.198Z,14.56
2023-04-06T13:40:49.183Z,14.75
2023-04-06T13:41:49.187Z,15.08
2023-04-06T13:42:49.174Z,15.23
2023-04-06T13:43:49.159Z,15.68
2023-04-06T13:44:49.157Z,15.88
2023-04-06T13:45:49.243Z,16.00
2023-04-06T13:46:49.153Z,15.94
2023-04-06T13:47:49.175Z,15.76
2023-04-06T13:48:49.144Z,16.01
2023-04-06T13:49:49.105Z,16.00
2023-04-06T13:50:49.106Z,16.06
2023-04-06T13:51:49.102Z,15.85
2023-04-06T13:52:49.141Z,15.96
2023-04-06T13:53:49.101Z,15.82
2023-04-06T13:54:49.072Z,15.57
2023-04-06T13:55:49.046Z,15.13
2023-04-06T13:56:49.047Z,14.83
2023-04-06T13:57:49.049Z,14.60
2023-04-06T13:58:49.013Z,14.54
2023-04-06T13:59:48.997Z,14.54
2023-04-06T14:00:49.192Z,14.64
2023-04-06T14:01:49.005Z,14.62
2023-04-06T14:02:49.025Z,14.61
2023-04-06T14:03:49.634Z,14.31
2023-04-06T14:04:48.950Z,14.04
2023-04-06T14:05:48.968Z,13.77
2023-04-06T14:06:48.951Z,13.63
2023-04-06T14:07:48.904Z,13.55
2023-04-06T14:08:48.931Z,13.74
2023-04-06T14:09:48.897Z,13.83
2023-04-06T14:10:48.933Z,13.98
2023-04-06T14:11:48.892Z,14.16
2023-04-06T14:12:48.872Z,14.37
2023-04-06T14:13:48.846Z,14.49
2023-04-06T14:14:48.833Z,14.54
2023-04-06T14:15:48.831Z,14.61
2023-04-06T14:16:48.862Z,14.46
2023-04-06T14:17:48.925Z,14.47
2023-04-06T14:18:48.797Z,14.35
2023-04-06T14:19:48.795Z,14.32
2023-04-06T14:20:48.806Z,14.35
2023-04-06T14:21:48.771Z,14.39
2023-04-06T14:22:48.784Z,14.65
2023-04-06T14:23:48.752Z,14.78
2023-04-06T14:24:48.736Z,14.93
2023-04-06T14:25:48.742Z,14.91
2023-04-06T14:26:48.732Z,14.83
2023-04-06T14:27:48.741Z,14.65
2023-04-06T14:28:48.716Z,14.56
2023-04-06T14:29:48.694Z,14.64
2023-04-06T14:30:48.708Z,14.64
2023-04-06T14:31:48.675Z,14.65
2023-04-06T14:32:48.726Z,14.60
2023-04-06T14:33:48.721Z,14.56
2023-04-06T14:34:48.638Z,14.42
2023-04-06T14:35:48.647Z,14.32
2023-04-06T14:36:48.717Z,14.34
2023-04-06T14:37:48.653Z,14.37
2023-04-06T14:38:48.642Z,14.61
2023-04-06T14:39:48.594Z,14.65
2023-04-06T14:40:48.604Z,14.72
2023-04-06T14:41:49.821Z,14.69
2023-04-06T14:42:48.574Z,14.75
2023-04-06T14:43:48.779Z,14.90
2023-04-06T14:44:48.600Z,14.68
2023-04-06T14:45:48.549Z,14.38
2023-04-06T14:46:48.646Z,14.44
2023-04-06T14:47:48.595Z,14.43
2023-04-06T14:48:48.553Z,14.37
2023-04-06T14:49:48.500Z,14.57
2023-04-06T14:50:48.491Z,14.60
2023-04-06T14:51:48.469Z,14.49
2023-04-06T14:52:48.486Z,14.50
2023-04-06T14:53:48.456Z,14.42
2023-04-06T14:54:48.440Z,14.28
2023-04-06T14:55:48.452Z,14.31
2023-04-06T14:56:48.445Z,14.29
2023-04-06T14:57:48.471Z,14.34
2023-04-06T14:58:48.421Z,14.34
2023-04-06T14:59:48.427Z,14.54
2023-04-06T15:00:48.410Z,14.47
2023-04-06T15:01:48.476Z,14.32
2023-04-06T15:02:48.513Z,14.47
2023-04-06T15:03:48.670Z,14.27
2023-04-06T15:04:48.377Z,14.28
2023-04-06T15:05:48.382Z,14.13
2023-04-06T15:06:48.329Z,14.20
2023-04-06T15:07:48.359Z,14.16
2023-04-06T15:08:48.333Z,14.19
2023-04-06T15:09:48.337Z,14.21
2023-04-06T15:10:48.300Z,14.32
2023-04-06T15:11:48.442Z,14.44
2023-04-06T15:12:50.086Z,14.35
2023-04-06T15:13:48.449Z,14.21